createdAt,value
2023-10-21T00:00:34.002Z,20.33
2023-10-21T00:03:06.753Z,21.50
2023-10-21T00:05:39.882Z,17.03
2023-10-21T00:08:14.237Z,18.87
2023-10-21T00:10:48.093Z,23.00
2023-10-21T00:13:20.881Z,19.53
2023-10-21T00:15:53.490Z,18.50
2023-10-21T00:18:25.414Z,21.53
2023-10-21T00:20:58.303Z,21.40
2023-10-21T00:23:33.241Z,21.17
2023-10-21T00:26:05.894Z,20.23
2023-10-21T00:28:38.496Z,20.27
2023-10-21T00:31:11.284Z,22.23
2023-10-21T00:33:44.112Z,20.73
2023-10-21T00:36:16.976Z,19.83
2023-10-21T00:38:51.125Z,23.73
2023-10-21T00:41:23.899Z,19.03
2023-10-21T00:43:59.135Z,20.50
2023-10-21T00:46:34.232Z,23.23
2023-10-21T00:49:07.024Z,22.13
2023-10-21T00:51:40.469Z,24.30
2023-10-21T00:54:15.939Z,20.80
2023-10-21T00:56:48.754Z,23.20
2023-10-21T00:59:21.463Z,22.20
2023-10-21T01:01:54.289Z,20.07
2023-10-21T01:04:27.346Z,23.37
2023-10-21T01:07:01.043Z,22.43
2023-10-21T01:09:35.231Z,21.80
2023-10-21T01:12:08.619Z,22.20
2023-10-21T01:14:41.468Z,22.87
2023-10-21T01:17:14.059Z,23.93
2023-10-21T01:19:46.686Z,22.63
2023-10-21T01:22:19.458Z,26.17
2023-10-21T01:24:56.011Z,24.53
2023-10-21T01:27:28.736Z,24.93
2023-10-21T01:30:01.480Z,21.17
2023-10-21T01:32:34.195Z,23.83
2023-10-21T01:35:08.124Z,27.47
2023-10-21T01:37:40.710Z,27.93
2023-10-21T01:40:15.035Z,28.13
2023-10-21T01:42:47.747Z,25.87
2023-10-21T01:45:20.950Z,25.30
2023-10-21T01:47:54.618Z,27.03
2023-10-21T01:50:29.431Z,25.70
2023-10-21T01:53:02.119Z,30.80
2023-10-21T01:55:36.286Z,25.67
2023-10-21T01:58:08.970Z,23.60
2023-10-21T02:00:41.691Z,21.90
2023-10-21T02:03:14.464Z,28.43
2023-10-21T02:05:49.546Z,25.97
2023-10-21T02:08:24.380Z,28.10
2023-10-21T02:11:02.441Z,27.50
2023-10-21T02:13:38.861Z,28.50
2023-10-21T02:16:11.791Z,26.10
2023-10-21T02:18:44.623Z,26.73
2023-10-21T02:21:17.309Z,23.87
2023-10-21T02:23:50.023Z,26.63
2023-10-21T02:26:29.002Z,29.73
2023-10-21T02:29:01.771Z,27.50
2023-10-21T02:31:35.064Z,24.87
2023-10-21T02:34:08.226Z,30.07
2023-10-21T02:36:40.968Z,26.67
2023-10-21T02:39:14.478Z,27.07
2023-10-21T02:41:48.930Z,27.70
2023-10-21T02:44:21.873Z,28.57
2023-10-21T02:46:54.658Z,24.90
2023-10-21T02:49:27.227Z,27.80
2023-10-21T02:52:02.538Z,28.00
2023-10-21T02:54:35.659Z,26.80
2023-10-21T02:57:09.769Z,28.40
2023-10-21T02:59:42.445Z,27.37
2023-10-21T03:02:17.507Z,33.37
2023-10-21T03:04:50.253Z,28.47
2023-10-21T03:07:23.895Z,31.77
2023-10-21T03:09:57.451Z,33.10
2023-10-21T03:12:31.613Z,32.53
2023-10-21T03:15:04.660Z,33.50
2023-10-21T03:17:37.634Z,30.50
2023-10-21T03:20:13.129Z,30.00
2023-10-21T03:22:45.757Z,30.37
2023-10-21T03:25:19.137Z,35.93
2023-10-21T03:27:56.406Z,29.17
2023-10-21T03:30:31.293Z,27.87
2023-10-21T03:33:04.301Z,30.57
2023-10-21T03:35:40.002Z,31.27
2023-10-21T03:38:12.848Z,33.37
2023-10-21T03:40:45.675Z,35.37
2023-10-21T03:43:19.955Z,30.23
2023-10-21T03:45:52.701Z,29.17
2023-10-21T03:48:25.757Z,39.63
2023-10-21T03:51:06.364Z,31.93
2023-10-21T03:53:39.495Z,29.03
2023-10-21T03:56:12.555Z,27.60
2023-10-21T03:58:48.984Z,33.20
2023-10-21T04:01:24.427Z,37.67
2023-10-21T04:03:57.398Z,33.77
2023-10-21T04:06:30.754Z,35.40
2023-10-21T04:09:04.126Z,29.70
2023-10-21T04:11:36.717Z,34.17
2023-10-21T04:14:13.559Z,30.40
2023-10-21T04:16:46.611Z,32.77
2023-10-21T04:19:20.352Z,39.70
2023-10-21T04:21:53.873Z,29.43
2023-10-21T04:24:26.510Z,28.27
2023-10-21T04:26:59.299Z,34.80
2023-10-21T04:29:35.439Z,36.07
2023-10-21T04:32:08.006Z,34.63
2023-10-21T04:34:43.460Z,35.33
2023-10-21T04:37:16.146Z,30.27
2023-10-21T04:39:48.885Z,30.30
2023-10-21T04:42:21.821Z,33.33
2023-10-21T04:44:58.476Z,31.20
2023-10-21T04:47:31.267Z,26.07
2023-10-21T04:50:04.356Z,28.57
2023-10-21T04:52:38.457Z,32.97
2023-10-21T04:55:11.177Z,33.67
2023-10-21T04:57:44.184Z,30.50
2023-10-21T05:00:18.580Z,32.30
2023-10-21T05:02:51.444Z,27.50
2023-10-21T05:05:24.282Z,38.73
2023-10-21T05:07:57.080Z,29.40
2023-10-21T05:10:29.887Z,25.33
2023-10-21T05:13:02.620Z,35.30
2023-10-21T05:15:37.628Z,32.17
2023-10-21T05:18:10.399Z,38.73
2023-10-21T05:20:43.748Z,28.70
2023-10-21T05:23:16.501Z,31.07
2023-10-21T05:25:49.226Z,29.10
2023-10-21T05:28:21.917Z,28.43
2023-10-21T05:30:56.193Z,31.60
2023-10-21T05:33:30.705Z,32.50
2023-10-21T05:36:04.330Z,28.47
2023-10-21T05:38:37.085Z,30.70
2023-10-21T05:41:09.849Z,28.33
2023-10-21T05:43:45.361Z,38.50
2023-10-21T05:46:19.468Z,31.53
2023-10-21T05:48:51.254Z,29.23
2023-10-21T05:51:24.197Z,27.00
2023-10-21T05:53:59.545Z,23.80
2023-10-21T05:56:35.112Z,25.40
2023-10-21T05:59:07.678Z,31.77
2023-10-21T06:01:41.901Z,26.13
2023-10-21T06:04:14.556Z,25.37
2023-10-21T06:06:47.156Z,28.47
2023-10-21T06:09:19.783Z,26.23
2023-10-21T06:11:55.199Z,27.60
2023-10-21T06:14:29.576Z,28.37
2023-10-21T06:17:04.701Z,24.13
2023-10-21T06:19:37.292Z,29.17
2023-10-21T06:22:10.002Z,26.77
2023-10-21T06:24:42.605Z,28.63
2023-10-21T06:27:15.314Z,30.77
2023-10-21T06:29:47.924Z,26.60
2023-10-21T06:32:21.893Z,31.10
2023-10-21T06:34:54.444Z,32.03
2023-10-21T06:37:27.066Z,30.80
2023-10-21T06:39:59.719Z,26.10
2023-10-21T06:42:34.241Z,32.23
2023-10-21T06:45:07.991Z,25.30
2023-10-21T06:47:44.548Z,24.07
2023-10-21T06:50:17.714Z,24.23
2023-10-21T06:52:50.438Z,26.37
2023-10-21T06:55:23.134Z,32.63
2023-10-21T06:57:55.757Z,28.73
2023-10-21T07:00:30.327Z,29.17
2023-10-21T07:03:04.676Z,49.20
2023-10-21T07:05:37.404Z,28.57
2023-10-21T07:08:10.238Z,24.13
2023-10-21T07:10:44.505Z,28.60
2023-10-21T07:13:17.110Z,24.73
2023-10-21T07:15:49.672Z,23.50
2023-10-21T07:18:23.728Z,22.43
2023-10-21T07:20:58.527Z,26.70
2023-10-21T07:23:31.128Z,26.40
2023-10-21T07:26:04.546Z,24.50
2023-10-21T07:28:37.251Z,31.33
2023-10-21T07:31:10.138Z,24.47
2023-10-21T07:33:44.154Z,26.50
2023-10-21T07:36:16.811Z,22.23
2023-10-21T07:38:49.785Z,25.03
2023-10-21T07:41:22.820Z,25.30
2023-10-21T07:43:55.595Z,23.33
2023-10-21T07:46:29.728Z,21.93
2023-10-21T07:49:06.603Z,25.10
2023-10-21T07:51:39.276Z,23.27
2023-10-21T07:54:13.141Z,22.40
2023-10-21T07:56:49.433Z,24.83
2023-10-21T07:59:23.539Z,22.60
2023-10-21T08:01:56.312Z,23.83
2023-10-21T08:04:30.525Z,23.40
2023-10-21T08:07:03.187Z,24.63
2023-10-21T08:09:37.352Z,26.23
2023-10-21T08:12:10.308Z,24.53
2023-10-21T08:14:43.129Z,22.60
2023-10-21T08:17:16.026Z,22.77
2023-10-21T08:19:50.113Z,22.23
2023-10-21T08:22:26.116Z,21.40
2023-10-21T08:24:58.857Z,21.70
2023-10-21T08:27:32.763Z,19.10
2023-10-21T08:30:06.118Z,20.37
2023-10-21T08:32:38.910Z,19.77
2023-10-21T08:35:14.879Z,19.47
2023-10-21T08:37:47.496Z,19.27
2023-10-21T08:40:20.392Z,19.20
2023-10-21T08:43:02.158Z,16.57
2023-10-21T08:45:36.688Z,18.73
2023-10-21T08:48:11.792Z,17.03
2023-10-21T08:50:49.976Z,16.77
2023-10-21T08:53:22.853Z,16.77
2023-10-21T08:55:55.804Z,15.40
2023-10-21T08:58:30.431Z,16.27
2023-10-21T09:01:03.309Z,15.27
2023-10-21T09:03:36.624Z,16.73
2023-10-21T09:06:13.040Z,17.67
2023-10-21T09:08:46.811Z,15.50
2023-10-21T09:11:20.322Z,16.50
2023-10-21T09:13:56.334Z,16.13
2023-10-21T09:16:31.557Z,16.80
2023-10-21T09:19:05.164Z,19.90
2023-10-21T09:21:39.985Z,15.63
2023-10-21T09:24:21.511Z,14.83
2023-10-21T09:26:54.377Z,17.03
2023-10-21T09:29:26.965Z,17.13
2023-10-21T09:32:00.866Z,14.80
2023-10-21T09:34:34.536Z,16.47
2023-10-21T09:37:09.779Z,13.60
2023-10-21T09:39:44.459Z,16.60
2023-10-21T09:42:18.086Z,16.00
2023-10-21T09:44:51.187Z,17.90
2023-10-21T09:47:24.273Z,15.37
2023-10-21T09:49:57.468Z,15.73
2023-10-21T09:52:38.141Z,15.50
2023-10-21T09:55:12.442Z,20.70
2023-10-21T09:57:45.601Z,14.50
2023-10-21T10:00:20.650Z,16.53
2023-10-21T10:02:54.898Z,13.27
2023-10-21T10:05:29.321Z,14.43
2023-10-21T10:08:05.560Z,13.47
2023-10-21T10:10:39.574Z,13.63
2023-10-21T10:13:15.204Z,13.30
2023-10-21T10:15:50.522Z,13.13
2023-10-21T10:18:25.312Z,13.87
2023-10-21T10:21:02.733Z,13.00
2023-10-21T10:23:37.103Z,13.20
2023-10-21T10:26:10.193Z,12.63
2023-10-21T10:28:43.138Z,11.53
2023-10-21T10:31:16.229Z,11.93
2023-10-21T10:33:52.489Z,10.00
2023-10-21T10:36:29.313Z,12.93
2023-10-21T10:39:05.600Z,9.63
2023-10-21T10:41:44.400Z,9.70
2023-10-21T10:44:19.556Z,9.07
2023-10-21T10:46:54.640Z,9.37
2023-10-21T10:49:28.163Z,8.30
2023-10-21T10:52:03.131Z,10.63
2023-10-21T10:54:41.328Z,9.17
2023-10-21T10:57:18.688Z,8.30
2023-10-21T10:59:51.694Z,10.10
2023-10-21T11:02:30.834Z,9.67
2023-10-21T11:05:04.869Z,7.20
2023-10-21T11:07:41.090Z,11.07
2023-10-21T11:10:19.423Z,7.27
2023-10-21T11:12:52.146Z,6.73
2023-10-21T11:15:25.197Z,8.63
2023-10-21T11:17:58.043Z,4.07
2023-10-21T11:20:30.805Z,3.93
2023-10-21T11:23:11.073Z,3.10
2023-10-21T11:25:45.237Z,3.13
2023-10-21T11:28:18.287Z,2.00
2023-10-21T11:30:51.509Z,1.70
2023-10-21T11:33:24.275Z,1.97
2023-10-21T11:35:57.616Z,2.07
2023-10-21T11:38:30.682Z,1.40
2023-10-21T11:41:08.763Z,3.10
2023-10-21T11:43:46.036Z,3.50
2023-10-21T11:46:19.326Z,2.20
2023-10-21T11:48:52.551Z,1.63
2023-10-21T11:51:25.336Z,2.40
2023-10-21T11:54:01.148Z,2.07
2023-10-21T11:56:56.940Z,1.27
2023-10-21T11:59:51.274Z,2.37
2023-10-21T12:02:38.771Z,1.33
2023-10-21T12:05:34.514Z,1.30
2023-10-21T12:08:24.981Z,1.40
2023-10-21T12:11:20.177Z,3.40
2023-10-21T12:14:18.883Z,0.90
2023-10-21T12:17:14.712Z,1.00
2023-10-21T12:19:52.929Z,1.87
2023-10-21T12:22:42.387Z,2.63
2023-10-21T12:25:31.747Z,3.03
2023-10-21T12:28:21.951Z,1.67
2023-10-21T12:31:21.871Z,1.30
2023-10-21T12:34:14.280Z,1.20
2023-10-21T12:37:14.339Z,2.53
2023-10-21T12:39:48.948Z,2.83
2023-10-21T12:42:28.182Z,1.20
2023-10-21T12:44:59.909Z,1.40
2023-10-21T12:47:35.152Z,2.00
2023-10-21T12:50:14.186Z,1.47
2023-10-21T12:52:49.150Z,2.10
2023-10-21T12:55:26.582Z,1.07
2023-10-21T12:57:59.551Z,1.27
2023-10-21T13:00:32.418Z,1.30
2023-10-21T13:03:12.265Z,1.20
2023-10-21T13:05:47.470Z,1.73
2023-10-21T13:08:20.512Z,1.40
2023-10-21T13:10:55.754Z,1.30
2023-10-21T13:13:29.374Z,2.27
2023-10-21T13:16:02.167Z,4.87
2023-10-21T13:18:36.681Z,1.43
2023-10-21T13:21:09.471Z,1.97
2023-10-21T13:23:42.142Z,2.07
2023-10-21T13:26:14.875Z,2.27
2023-10-21T13:28:47.573Z,2.30
2023-10-21T13:31:20.258Z,1.27
2023-10-21T13:33:54.519Z,3.10
2023-10-21T13:36:27.328Z,2.67
2023-10-21T13:39:01.414Z,1.40
2023-10-21T13:41:37.129Z,1.37
2023-10-21T13:44:09.822Z,1.47
2023-10-21T13:46:42.610Z,1.50
2023-10-21T13:49:17.586Z,1.20
2023-10-21T13:51:52.926Z,1.80
2023-10-21T13:54:25.741Z,1.57
2023-10-21T13:57:02.419Z,2.13
2023-10-21T13:59:35.260Z,1.20
2023-10-21T14:02:10.006Z,1.70
2023-10-21T14:04:44.072Z,1.93
2023-10-21T14:07:17.818Z,1.30
2023-10-21T14:09:50.749Z,3.77
2023-10-21T14:12:23.823Z,1.60
2023-10-21T14:15:06.524Z,1.50
2023-10-21T14:17:40.474Z,4.23
2023-10-21T14:20:17.683Z,1.90
2023-10-21T14:22:52.244Z,2.30
2023-10-21T14:25:24.821Z,1.60
2023-10-21T14:27:57.501Z,8.67
2023-10-21T14:30:32.444Z,4.40
2023-10-21T14:33:06.067Z,3.43
2023-10-21T14:35:40.742Z,2.60
2023-10-21T14:38:14.454Z,1.83
2023-10-21T14:40:49.197Z,3.33
2023-10-21T14:43:25.948Z,4.27
2023-10-21T14:45:59.172Z,2.00
2023-10-21T14:48:34.707Z,3.83
2023-10-21T14:51:09.271Z,1.67
2023-10-21T14:53:44.440Z,2.33
2023-10-21T14:56:17.227Z,1.63
2023-10-21T14:58:50.233Z,2.87
2023-10-21T15:01:24.771Z,2.73
2023-10-21T15:03:59.007Z,5.13
2023-10-21T15:06:33.827Z,3.17
2023-10-21T15:09:06.873Z,3.33
2023-10-21T15:11:39.766Z,6.33
2023-10-21T15:14:12.491Z,8.07
2023-10-21T15:16:47.314Z,4.00
2023-10-21T15:19:20.021Z,3.70
2023-10-21T15:21:54.200Z,4.23
2023-10-21T15:24:26.790Z,3.83
2023-10-21T15:27:01.034Z,4.60
2023-10-21T15:29:36.202Z,7.17
2023-10-21T15:32:11.195Z,7.90
2023-10-21T15:34:47.293Z,5.37
2023-10-21T15:37:22.326Z,4.70
2023-10-21T15:39:57.025Z,6.23
2023-10-21T15:42:31.042Z,5.67
2023-10-21T15:45:03.726Z,6.63
2023-10-21T15:47:38.709Z,5.33
2023-10-21T15:50:12.082Z,6.10
2023-10-21T15:52:46.603Z,5.20
2023-10-21T15:55:19.186Z,6.67
2023-10-21T15:57:51.967Z,6.37
2023-10-21T16:00:24.675Z,5.80
2023-10-21T16:02:57.659Z,8.63
2023-10-21T16:05:30.324Z,4.80
2023-10-21T16:08:04.790Z,4.37
2023-10-21T16:10:37.520Z,6.23
2023-10-21T16:13:10.338Z,7.20
2023-10-21T16:15:43.656Z,6.00
2023-10-21T16:18:16.489Z,7.57
2023-10-21T16:20:53.533Z,6.97
2023-10-21T16:23:27.701Z,6.03
2023-10-21T16:26:00.458Z,9.07
2023-10-21T16:28:33.102Z,7.53
2023-10-21T16:31:06.984Z,6.07
2023-10-21T16:33:39.772Z,7.83
2023-10-21T16:36:12.518Z,6.77
2023-10-21T16:38:49.468Z,6.33
2023-10-21T16:41:22.153Z,9.33
2023-10-21T16:43:54.946Z,9.13
2023-10-21T16:46:27.916Z,10.73
2023-10-21T16:49:00.686Z,9.97
2023-10-21T16:51:33.503Z,8.37
2023-10-21T16:54:07.822Z,11.67
2023-10-21T16:56:40.523Z,10.13
2023-10-21T16:59:13.310Z,11.70
2023-10-21T17:01:47.770Z,11.70
2023-10-21T17:04:20.800Z,27.60
2023-10-21T17:06:54.169Z,21.13
2023-10-21T17:09:28.359Z,29.70
2023-10-21T17:12:01.023Z,26.53
2023-10-21T17:14:33.859Z,21.50
2023-10-21T17:17:08.500Z,18.67
2023-10-21T17:19:41.256Z,20.13
2023-10-21T17:22:13.905Z,13.33
2023-10-21T17:24:48.047Z,15.00
2023-10-21T17:27:20.789Z,9.40
2023-10-21T17:29:53.478Z,9.00
2023-10-21T17:32:26.120Z,9.83
2023-10-21T17:34:58.913Z,9.03
2023-10-21T17:37:31.569Z,9.80
2023-10-21T17:40:06.920Z,10.30
2023-10-21T17:42:39.596Z,7.17
2023-10-21T17:45:14.240Z,8.33
2023-10-21T17:47:47.011Z,7.73
2023-10-21T17:50:20.547Z,6.87
2023-10-21T17:52:53.264Z,5.13
2023-10-21T17:55:27.321Z,5.33
2023-10-21T17:58:00.512Z,5.60
2023-10-21T18:00:33.255Z,8.33
2023-10-21T18:03:07.711Z,6.77
2023-10-21T18:05:40.580Z,8.67
2023-10-21T18:08:13.197Z,7.87
2023-10-21T18:10:47.266Z,7.67
2023-10-21T18:13:22.546Z,7.73
2023-10-21T18:15:55.320Z,8.27
2023-10-21T18:18:28.133Z,10.77
2023-10-21T18:21:00.920Z,8.70
2023-10-21T18:23:33.663Z,7.80
2023-10-21T18:26:07.830Z,8.23
2023-10-21T18:28:40.599Z,11.20
2023-10-21T18:31:13.466Z,8.30
2023-10-21T18:33:46.202Z,8.37
2023-10-21T18:36:19.047Z,8.93
2023-10-21T18:38:51.734Z,10.13
2023-10-21T18:41:28.784Z,9.47
2023-10-21T18:44:01.810Z,10.47
2023-10-21T18:46:34.537Z,10.20
2023-10-21T18:49:07.274Z,8.93
2023-10-21T18:51:40.032Z,9.83
2023-10-21T18:54:12.783Z,12.83
2023-10-21T18:56:46.853Z,9.93
2023-10-21T18:59:19.574Z,9.47
2023-10-21T19:01:54.407Z,10.37
2023-10-21T19:04:27.185Z,10.30
2023-10-21T19:07:00.148Z,12.00
2023-10-21T19:09:34.930Z,10.70
2023-10-21T19:12:09.859Z,10.67
2023-10-21T19:14:42.573Z,12.17
2023-10-21T19:17:15.259Z,9.90
2023-10-21T19:19:51.074Z,11.63
2023-10-21T19:22:23.706Z,11.07
2023-10-21T19:24:56.417Z,12.77
2023-10-21T19:27:30.790Z,10.07
2023-10-21T19:30:03.361Z,11.93
2023-10-21T19:32:36.862Z,10.87
2023-10-21T19:35:09.665Z,11.20
2023-10-21T19:37:50.697Z,12.90
2023-10-21T19:40:28.675Z,10.63
2023-10-21T19:43:03.664Z,10.00
2023-10-21T19:45:40.904Z,11.47
2023-10-21T19:48:13.771Z,11.77
2023-10-21T19:50:49.012Z,12.50
2023-10-21T19:53:21.706Z,11.80
2023-10-21T19:55:54.890Z,9.30
2023-10-21T19:58:29.447Z,14.47
2023-10-21T20:01:06.110Z,10.27
2023-10-21T20:03:40.776Z,12.57
2023-10-21T20:06:15.146Z,12.13
2023-10-21T20:08:50.814Z,10.73
2023-10-21T20:11:25.090Z,14.93
2023-10-21T20:13:59.218Z,11.07
2023-10-21T20:16:39.256Z,12.23
2023-10-21T20:19:14.573Z,10.20
2023-10-21T20:21:47.360Z,13.10
2023-10-21T20:24:20.287Z,11.73
2023-10-21T20:26:53.028Z,11.90
2023-10-21T20:29:27.092Z,14.93
2023-10-21T20:31:59.804Z,12.20
2023-10-21T20:34:32.768Z,12.20
2023-10-21T20:37:09.754Z,13.57
2023-10-21T20:39:56.348Z,13.40
2023-10-21T20:42:29.011Z,11.73
2023-10-21T20:45:04.457Z,14.07
2023-10-21T20:47:37.172Z,10.77
2023-10-21T20:50:10.145Z,11.63
2023-10-21T20:52:42.734Z,11.20
2023-10-21T20:55:15.725Z,13.40
2023-10-21T20:57:48.483Z,12.93
2023-10-21T21:00:23.402Z,12.07
2023-10-21T21:02:55.995Z,13.07
2023-10-21T21:05:28.663Z,13.80
2023-10-21T21:08:01.839Z,14.50
2023-10-21T21:10:37.533Z,12.47
2023-10-21T21:13:10.104Z,12.13
2023-10-21T21:15:44.253Z,12.40
2023-10-21T21:18:17.146Z,11.13
2023-10-21T21:20:49.878Z,15.90
2023-10-21T21:23:23.505Z,11.93
2023-10-21T21:25:56.317Z,13.43
2023-10-21T21:28:29.170Z,12.83
2023-10-21T21:31:03.296Z,16.30
2023-10-21T21:33:37.803Z,19.33
2023-10-21T21:36:10.822Z,13.60
2023-10-21T21:38:46.224Z,13.87
2023-10-21T21:41:19.812Z,18.67
2023-10-21T21:43:52.469Z,19.23
2023-10-21T21:46:26.501Z,18.00
2023-10-21T21:49:00.738Z,15.33
2023-10-21T21:51:35.151Z,19.30
2023-10-21T21:54:07.974Z,17.63
2023-10-21T21:56:40.729Z,16.83
2023-10-21T21:59:13.470Z,16.37
2023-10-21T22:01:48.644Z,17.27
2023-10-21T22:04:23.500Z,15.90
2023-10-21T22:06:57.098Z,16.47
2023-10-21T22:09:29.885Z,15.47
2023-10-21T22:12:05.315Z,17.50
2023-10-21T22:14:38.465Z,16.83
2023-10-21T22:17:12.742Z,16.57
2023-10-21T22:19:45.541Z,18.40
2023-10-21T22:22:18.245Z,18.23
2023-10-21T22:24:55.887Z,17.33
2023-10-21T22:27:29.155Z,18.00
2023-10-21T22:30:01.923Z,15.90
2023-10-21T22:32:36.227Z,17.63
2023-10-21T22:35:09.720Z,15.83
2023-10-21T22:37:42.444Z,17.97
2023-10-21T22:40:18.409Z,16.70
2023-10-21T22:42:51.082Z,17.20
2023-10-21T22:45:23.741Z,18.23
2023-10-21T22:47:57.903Z,18.03
2023-10-21T22:50:31.021Z,16.87
2023-10-21T22:53:05.430Z,17.27
2023-10-21T22:55:38.827Z,17.10
2023-10-21T22:58:11.750Z,15.53
2023-10-21T23:00:44.696Z,15.53
2023-10-21T23:03:18.746Z,19.23
2023-10-21T23:05:53.468Z,16.37
2023-10-21T23:08:28.383Z,16.27
2023-10-21T23:11:01.435Z,16.50
2023-10-21T23:13:34.116Z,19.53
2023-10-21T23:16:08.841Z,18.33
2023-10-21T23:18:43.098Z,16.47
2023-10-21T23:21:16.029Z,19.33
2023-10-21T23:23:48.964Z,14.80
2023-10-21T23:26:20.619Z,16.70
2023-10-21T23:28:53.265Z,14.83
2023-10-21T23:31:28.517Z,15.13
2023-10-21T23:34:11.304Z,14.10
2023-10-21T23:36:44.632Z,14.00
2023-10-21T23:39:21.788Z,13.13
2023-10-21T23:41:54.548Z,14.27
2023-10-21T23:44:27.659Z,16.33
2023-10-21T23:47:01.158Z,13.60
2023-10-21T23:49:35.327Z,12.70
2023-10-21T23:52:10.758Z,14.47
2023-10-21T23:54:43.633Z,13.53
2023-10-21T23:57:17.084Z,14.13
2023-10-21T23:59:49.778Z,14.00
